Latest Weather Observations for Warruwi

IDD60801

Issued at 2:01 pm CST Thursday 26 May 2016 (issued every 30 minutes, with the page automatically refreshed every 10 minutes)

About weather observations | Map of weather stations | Latest weather observations for NT | Other Formats
Station Details ID: 014401 Name: WARRUWI AIRPORT Lat: -11.65 Lon: 133.38 Height: 19.2 m
Data from the previous 72 hours. | See also: Recent months at Warruwi
Date/Time
CST
Temp
°C
App
Temp
°C
Dew
Point
Rel
Hum
%
Delta-T
°C
Wind Press
QNH
hPa
Press
MSL
hPa
Rain
since 9 am
mm
Dir
 
Spd
km/h
Gust
km/h
Spd
kts
Gust
kts
26/02:00pm 32.0 35.0 21.2 52 7.3 NE 7 11 4 6 1012.0 1011.8 0.0
26/01:30pm 31.1 34.0 21.0 55 6.8 ENE 7 13 4 7 1012.6 1012.4 0.0
26/01:00pm 31.9 35.0 21.4 53 7.1 ENE 7 13 4 7 1013.0 1012.8 0.0
26/12:30pm 30.9 33.8 21.7 58 6.2 E 9 13 5 7 1013.6 1013.4 0.0
26/12:00pm 30.5 33.7 22.4 62 5.5 ENE 9 13 5 7 1014.0 1013.8 0.0
26/11:30am 30.0 34.0 23.7 69 4.4 E 9 15 5 8 1014.4 1014.2 0.0
26/11:00am 30.1 33.5 23.3 67 4.7 E 11 15 6 8 1014.8 1014.6 0.0
26/10:30am 30.1 34.3 23.5 67 4.6 SE 7 13 4 7 1015.0 1014.8 0.0
26/10:00am 29.8 34.0 23.5 69 4.3 SE 7 11 4 6 1015.1 1014.9 0.0
26/09:30am 29.7 34.3 24.1 72 3.9 SE 7 11 4 6 1014.9 1014.7 0.0
26/09:00am 29.4 33.9 24.0 72 3.7 SE 7 11 4 6 1014.7 1014.5 0.0
26/08:30am 28.3 32.8 23.9 77 3.0 SSE 7 9 4 5 1014.4 1014.2 0.0
26/08:00am 27.4 32.8 24.5 84 2.0 SSE 4 7 2 4 1014.1 1013.9 0.0
26/07:30am 25.3 31.3 24.3 94 0.7 CALM 0 0 0 0 1013.8 1013.6 0.0
26/07:00am 24.9 30.1 23.5 92 1.0 S 2 2 1 1 1013.5 1013.3 0.0
26/06:30am 25.5 30.6 24.1 92 1.0 SSW 4 6 2 3 1013.2 1013.0 0.0
26/06:00am 25.1 30.4 23.7 92 1.0 SSW 2 4 1 2 1013.1 1012.9 0.0
26/05:30am 25.7 31.3 24.3 92 1.0 SSE 2 6 1 3 1012.8 1012.6 0.0
26/05:00am 25.6 30.9 24.4 93 0.8 SSE 4 6 2 3 1012.7 1012.5 0.0
26/04:30am 25.6 30.9 24.4 93 0.8 S 4 4 2 2 1012.6 1012.4 0.0
26/04:00am 25.0 30.5 23.4 91 1.1 CALM 0 0 0 0 1012.5 1012.3 0.0
26/03:30am 24.9 30.2 23.1 90 1.2 CALM 0 0 0 0 1012.6 1012.4 0.0
26/03:00am 24.9 30.2 23.0 89 1.3 CALM 0 0 0 0 1012.7 1012.5 0.0
26/02:30am 24.9 30.2 23.0 89 1.3 CALM 0 0 0 0 1012.8 1012.6 0.0
26/02:00am 25.1 30.5 23.2 89 1.3 CALM 0 0 0 0 1012.9 1012.7 0.0
26/01:30am 25.1 30.4 23.0 88 1.4 CALM 0 0 0 0 1013.0 1012.8 0.0
26/01:00am 25.2 30.4 22.9 87 1.6 CALM 0 0 0 0 1013.1 1012.9 0.0
26/12:30am 25.4 30.6 22.9 86 1.7 CALM 0 0 0 0 1013.3 1013.1 0.0
26/12:00am 25.8 31.1 23.1 85 1.8 CALM 0 0 0 0 1013.2 1013.0 0.0
 
Date/Time
CST
Temp
°C
App
Temp
°C
Dew
Point
Rel
Hum
%
Delta-T
°C
Wind Press
QNH
hPa
Press
MSL
hPa
Rain
since 9 am
mm
Dir
 
Spd
km/h
Gust
km/h
Spd
kts
Gust
kts
25/11:30pm 25.9 31.2 23.0 84 2.0 CALM 0 0 0 0 1013.3 1013.1 0.0
25/11:00pm 25.9 30.8 23.0 84 2.0 NNE 2 6 1 3 1013.4 1013.2 0.0
25/10:30pm 25.9 31.1 22.8 83 2.1 CALM 0 2 0 1 1013.2 1013.0 0.0
25/10:00pm 26.0 31.1 22.7 82 2.2 CALM 0 0 0 0 1013.2 1013.0 0.0
25/09:30pm 26.3 31.5 22.8 81 2.4 CALM 0 0 0 0 1013.1 1012.9 0.0
25/09:00pm 26.5 31.7 22.8 80 2.5 CALM 0 0 0 0 1012.8 1012.6 0.0
25/08:30pm 27.0 31.8 22.8 78 2.8 NE 2 6 1 3 1012.5 1012.3 0.0
25/08:00pm 27.4 32.2 22.8 76 3.1 NE 2 4 1 2 1012.1 1011.9 0.0
25/07:30pm 27.6 32.4 22.8 75 3.3 NE 2 4 1 2 1011.9 1011.7 0.0
25/07:00pm 27.9 32.2 22.6 73 3.6 NE 4 7 2 4 1011.4 1011.2 0.0
25/06:30pm 28.4 32.7 22.6 71 3.9 NE 4 7 2 4 1011.2 1011.0 0.0
25/06:00pm 29.1 32.8 22.3 66 4.6 NE 6 11 3 6 1010.9 1010.7 0.0
25/05:30pm 29.9 32.9 21.3 60 5.8 NE 7 13 4 7 1010.6 1010.4 0.0
25/05:00pm 30.9 33.8 21.1 56 6.6 NE 7 13 4 7 1010.4 1010.2 0.0
25/04:30pm 31.1 33.8 20.7 54 6.9 NE 7 11 4 6 1010.2 1010.0 0.0
25/04:00pm 31.9 34.8 21.7 54 6.9 NNE 9 17 5 9 1010.3 1010.1 0.0
25/03:30pm 32.0 35.0 21.2 52 7.3 NE 7 15 4 8 1010.4 1010.2 0.0
25/03:00pm 31.8 34.8 21.9 55 6.7 NE 9 15 5 8 1010.4 1010.2 0.0
25/02:30pm 31.4 33.4 21.6 56 6.6 E 13 17 7 9 1010.6 1010.4 0.0
25/02:00pm 31.4 33.9 21.8 56 6.5 E 11 19 6 10 1010.9 1010.7 0.0
25/01:30pm 30.5 33.2 22.1 61 5.7 ENE 11 17 6 9 1011.6 1011.4 0.0
25/01:00pm 30.6 33.0 22.2 61 5.7 E 13 19 7 10 1012.1 1011.9 0.0
25/12:30pm 30.8 33.5 22.1 59 5.9 E 11 17 6 9 1012.6 1012.4 0.0
25/12:00pm 30.6 33.5 21.7 59 6.0 E 9 15 5 8 1013.1 1012.9 0.0
25/11:30am 30.2 32.6 21.6 60 5.8 E 11 17 6 9 1013.4 1013.2 0.0
25/11:00am 30.4 33.0 22.0 60 5.7 E 11 17 6 9 1013.9 1013.7 0.0
25/10:30am 30.4 33.2 22.3 62 5.5 ESE 11 19 6 10 1013.8 1013.6 0.0
25/10:00am 29.6 31.9 22.1 64 5.1 ESE 13 20 7 11 1014.1 1013.9 0.0
25/09:30am 28.8 31.5 22.1 67 4.5 SE 11 17 6 9 1014.0 1013.8 0.0
25/09:00am 28.8 31.3 21.8 66 4.7 ESE 11 19 6 10 1013.9 1013.7 0.0
25/08:30am 28.0 29.6 21.5 67 4.3 ESE 15 19 8 10 1013.6 1013.4 0.0
25/08:00am 27.8 30.5 22.1 71 3.8 SE 11 19 6 10 1013.3 1013.1 0.0
25/07:30am 27.1 30.3 22.3 75 3.2 SE 9 13 5 7 1013.1 1012.9 0.0
25/07:00am 26.5 30.3 22.8 80 2.5 SE 7 9 4 5 1012.8 1012.6 0.0
25/06:30am 26.5 30.8 23.6 84 2.0 SSE 7 13 4 7 1012.5 1012.3 0.0
25/06:00am 26.1 30.6 24.0 88 1.4 SE 7 13 4 7 1012.4 1012.2 0.0
25/05:30am 26.2 31.5 24.4 90 1.2 S 4 7 2 4 1012.1 1011.9 0.0
25/05:00am 26.1 31.4 24.3 90 1.2 S 4 6 2 3 1011.9 1011.7 0.0
25/04:30am 26.1 31.5 24.5 91 1.1 S 4 6 2 3 1011.9 1011.7 0.0
25/04:00am 25.6 30.7 24.0 91 1.1 SSE 4 6 2 3 1011.8 1011.6 0.0
25/03:30am 25.3 30.9 23.5 90 1.2 CALM 0 0 0 0 1011.7 1011.5 0.0
25/03:00am 25.4 31.0 23.5 89 1.3 CALM 0 0 0 0 1012.0 1011.8 0.0
25/02:30am 25.6 31.2 23.5 88 1.4 CALM 0 0 0 0 1012.2 1012.0 0.0
25/02:00am 25.7 31.2 23.4 87 1.6 CALM 0 0 0 0 1012.4 1012.2 0.0
25/01:30am 25.8 31.4 23.5 87 1.6 CALM 0 0 0 0 1012.6 1012.4 0.0
25/01:00am 25.9 31.4 23.4 86 1.7 CALM 0 0 0 0 1012.8 1012.6 0.0
25/12:30am 26.1 31.6 23.4 85 1.8 CALM 0 0 0 0 1012.9 1012.7 0.0
25/12:00am 26.4 32.0 23.5 84 2.0 CALM 0 0 0 0 1013.0 1012.8 0.0
 
Date/Time
CST
Temp
°C
App
Temp
°C
Dew
Point
Rel
Hum
%
Delta-T
°C
Wind Press
QNH
hPa
Press
MSL
hPa
Rain
since 9 am
mm
Dir
 
Spd
km/h
Gust
km/h
Spd
kts
Gust
kts
24/11:30pm 26.6 32.3 23.7 84 2.0 CALM 0 0 0 0 1013.2 1013.0 0.0
24/11:00pm 26.9 32.5 23.6 82 2.3 CALM 0 0 0 0 1013.1 1012.9 0.0
24/10:30pm 26.9 32.5 23.6 82 2.3 CALM 0 0 0 0 1013.2 1013.0 0.0
24/10:00pm 26.6 32.0 23.3 82 2.3 CALM 0 0 0 0 1013.2 1013.0 0.0
24/09:30pm 26.3 31.6 23.0 82 2.2 CALM 0 0 0 0 1012.9 1012.7 0.0
24/09:00pm 26.4 31.5 22.7 80 2.5 CALM 0 0 0 0 1012.6 1012.4 0.0
24/08:30pm 26.7 31.7 22.5 78 2.8 CALM 0 0 0 0 1012.4 1012.2 0.0
24/08:00pm 27.3 31.9 22.5 75 3.2 NE 2 4 1 2 1011.9 1011.7 0.0
24/07:30pm 27.4 31.8 22.1 73 3.6 NNE 2 4 1 2 1011.5 1011.3 0.0
24/07:00pm 27.9 32.2 21.9 70 4.0 NNE 2 6 1 3 1011.3 1011.1 0.0
24/06:30pm 28.3 31.9 22.1 69 4.2 NE 6 7 3 4 1010.9 1010.7 0.0
24/06:00pm 29.0 32.6 22.0 66 4.7 NE 6 13 3 7 1010.7 1010.5 0.0
24/05:30pm 29.7 32.8 22.2 64 5.1 NE 9 13 5 7 1010.3 1010.1 0.0
24/05:00pm 30.2 33.3 22.1 62 5.5 NE 9 13 5 7 1010.2 1010.0 0.0
24/04:30pm 30.7 33.7 22.0 59 5.9 NE 9 17 5 9 1010.1 1009.9 0.0
24/04:00pm 30.9 33.8 21.7 58 6.2 NE 9 15 5 8 1010.0 1009.8 0.0
24/03:30pm 31.1 34.2 22.1 58 6.1 E 9 15 5 8 1010.1 1009.9 0.0
24/03:00pm 31.2 34.1 21.7 57 6.4 E 9 13 5 7 1010.5 1010.3 0.0
24/02:30pm 31.2 33.8 21.9 57 6.3 E 11 19 6 10 1010.8 1010.6 0.0
24/02:00pm 31.6 34.4 22.3 57 6.3 E 11 19 6 10 1011.2 1011.0 0.0
24/01:30pm 30.6 33.1 21.7 59 6.0 E 11 19 6 10 1011.7 1011.5 0.0
24/01:00pm 30.6 33.6 22.7 62 5.4 E 11 19 6 10 1012.3 1012.1 0.0
24/12:30pm 29.9 32.4 23.1 67 4.7 E 15 19 8 10 1012.9 1012.7 0.0
24/12:00pm 29.6 31.9 22.8 67 4.6 E 15 19 8 10 1013.5 1013.3 0.0
24/11:30am 30.4 33.5 23.6 67 4.7 E 13 19 7 10 1013.9 1013.7 0.0
24/11:00am 29.5 32.3 23.0 68 4.4 E 13 19 7 10 1014.3 1014.1 0.0
24/10:30am 29.4 32.5 22.9 68 4.4 E 11 19 6 10 1014.5 1014.3 0.0
24/10:00am 29.5 32.5 23.4 69 4.2 SE 13 20 7 11 1014.5 1014.3 0.0
24/09:30am 28.6 31.0 22.3 68 4.3 ESE 13 20 7 11 1014.5 1014.3 0.0
24/09:00am 28.6 31.6 22.6 70 4.1 SE 11 19 6 10 1014.3 1014.1 0.0
24/08:30am 27.8 30.7 22.5 73 3.6 SE 11 17 6 9 1014.2 1014.0 0.0
24/08:00am 27.4 29.7 22.1 73 3.6 SE 13 17 7 9 1013.7 1013.5 0.0
24/07:30am 26.9 30.3 22.7 78 2.8 SE 9 13 5 7 1013.3 1013.1 0.0
24/07:00am 26.4 29.2 22.3 78 2.8 ESE 11 19 6 10 1013.0 1012.8 0.0
24/06:30am 26.6 29.1 22.4 78 2.8 ESE 13 19 7 10 1012.8 1012.6 0.0
24/06:00am 26.5 29.1 22.6 79 2.6 ESE 13 17 7 9 1012.4 1012.2 0.0
24/05:30am 26.6 29.3 22.9 80 2.5 ESE 13 19 7 10 1011.9 1011.7 0.0
24/05:00am 26.6 30.1 22.9 80 2.5 ESE 9 15 5 8 1011.7 1011.5 0.0
24/04:30am 26.6 29.6 22.7 79 2.6 ESE 11 17 6 9 1011.5 1011.3 0.0
24/04:00am 26.9 29.5 22.7 78 2.8 ESE 13 19 7 10 1011.6 1011.4 0.0
24/03:30am 27.0 29.6 22.6 77 3.0 SE 13 20 7 11 1011.7 1011.5 0.0
24/03:00am 27.0 30.1 22.8 78 2.9 ESE 11 17 6 9 1012.0 1011.8 0.0
24/02:30am 26.7 31.5 24.4 87 1.6 SE 7 13 4 7 1012.2 1012.0 0.0
24/02:00am 26.7 32.3 24.9 90 1.3 SSE 4 7 2 4 1012.5 1012.3 0.0
24/01:30am 26.7 32.0 24.9 90 1.3 S 6 7 3 4 1012.7 1012.5 0.0
24/01:00am 25.8 31.6 24.0 90 1.2 CALM 0 0 0 0 1012.9 1012.7 0.0
24/12:30am 25.9 31.8 24.1 90 1.2 CALM 0 0 0 0 1013.0 1012.8 0.0
24/12:00am 26.0 32.0 24.2 90 1.2 CALM 0 0 0 0 1013.0 1012.8 0.0
 
Date/Time
CST
Temp
°C
App
Temp
°C
Dew
Point
Rel
Hum
%
Delta-T
°C
Wind Press
QNH
hPa
Press
MSL
hPa
Rain
since 9 am
mm
Dir
 
Spd
km/h
Gust
km/h
Spd
kts
Gust
kts
23/11:30pm 26.1 32.0 24.1 89 1.4 CALM 0 0 0 0 1012.7 1012.5 0.0
23/11:00pm 26.3 32.3 24.2 88 1.4 CALM 0 0 0 0 1012.7 1012.5 0.0
23/10:30pm 26.8 32.8 24.3 86 1.7 CALM 0 0 0 0 1013.0 1012.8 0.0
23/10:00pm 26.8 32.7 24.1 85 1.9 CALM 0 0 0 0 1012.9 1012.7 0.0
23/09:30pm 27.3 33.3 24.2 83 2.1 CALM 0 0 0 0 1012.5 1012.3 0.0
23/09:00pm 27.8 33.4 24.2 81 2.5 ENE 2 6 1 3 1012.2 1012.0 0.0
23/08:30pm 27.8 32.9 24.0 80 2.6 NE 4 7 2 4 1011.8 1011.6 0.0
23/08:00pm 27.9 32.9 23.9 79 2.8 NE 4 7 2 4 1011.3 1011.1 0.0
23/07:30pm 28.1 32.8 23.9 78 2.9 NE 6 9 3 5 1011.0 1010.8 0.0
23/07:00pm 28.1 32.9 23.5 76 3.2 NE 4 9 2 5 1010.6 1010.4 0.0
23/06:30pm 28.5 32.7 23.4 74 3.5 NE 7 13 4 7 1010.3 1010.1 0.0
23/06:00pm 29.1 33.1 23.1 70 4.1 ENE 7 15 4 8 1010.2 1010.0 0.0
23/05:30pm 29.7 33.1 22.7 66 4.8 ENE 9 15 5 8 1010.0 1009.8 0.0
23/05:00pm 30.2 33.8 23.1 65 4.9 ENE 9 15 5 8 1009.7 1009.5 0.0
23/04:30pm 30.4 33.9 22.8 64 5.2 ENE 9 15 5 8 1009.6 1009.4 0.0
23/04:00pm 31.1 34.9 23.5 64 5.3 ENE 9 17 5 9 1009.6 1009.4 0.0
23/03:30pm 30.9 34.3 23.3 64 5.2 ENE 11 20 6 11 1009.8 1009.6 0.0
23/03:00pm 30.7 33.8 23.6 66 4.9 ENE 13 20 7 11 1010.0 1009.8 0.0
23/02:30pm 30.6 33.5 23.8 67 4.7 E 15 20 8 11 1010.3 1010.1 0.0

Other Formats:

Comma delimited format used in spreadsheet applications
http://www.bom.gov.au/fwo/IDD60801/IDD60801.94139.axf

JavaScript Object Notation format (JSON) in row-major order
http://www.bom.gov.au/fwo/IDD60801/IDD60801.94139.json